South Portland, Maine
Current Conditions -  °F | °C
As of 3:20 AM on Thursday 18 Dec 2014 (Local Time) from KPWM Reporting Station
Overcast Overcast  
Wind Chill:   Ceiling: 2600
Heat Index:   Visibility: 10mi
Dew Point:   Wind: 3mph
Humidity: 93%   Direction: 290°WNW
Pressure: 29.64"   Gusts: NA
Location:  43.64°N, 70.25°W
Report Text: KPWM 180820Z AUTO 29003KT 10SM BKN026 BKN031 OVC050 03/02 A2964 RMK AO2 T00330022
Loading
Personal Weather Stations






























Interactive Weather Map New forecast layout! Learn more

10-Day Weather Forecast

Advertisements
Track Severe Weather on mobile